createdAt,value
2023-04-03T00:00:00.878Z,95008.00
2023-04-03T00:01:00.912Z,95006.00
2023-04-03T00:02:00.967Z,95006.00
2023-04-03T00:03:01.069Z,95006.00
2023-04-03T00:04:01.138Z,95008.00
2023-04-03T00:05:01.147Z,95008.00
2023-04-03T00:06:01.223Z,95006.00
2023-04-03T00:07:01.260Z,95002.00
2023-04-03T00:08:01.334Z,95006.00
2023-04-03T00:09:01.382Z,95008.00
2023-04-03T00:10:01.446Z,95010.00
2023-04-03T00:11:01.497Z,95004.00
2023-04-03T00:12:01.558Z,95012.00
2023-04-03T00:13:01.605Z,95012.00
2023-04-03T00:14:01.683Z,95010.00
2023-04-03T00:15:01.759Z,95010.00
2023-04-03T00:16:01.832Z,95012.00
2023-04-03T00:17:01.997Z,95010.00
2023-04-03T00:18:01.960Z,95012.00
2023-04-03T00:19:01.995Z,95012.00
2023-04-03T00:20:02.062Z,95010.00
2023-04-03T00:21:02.114Z,95010.00
2023-04-03T00:22:02.153Z,95012.00
2023-04-03T00:23:02.255Z,95010.00
2023-04-03T00:24:02.312Z,95014.00
2023-04-03T00:25:02.350Z,95014.00
2023-04-03T00:26:02.367Z,95017.00
2023-04-03T00:27:02.463Z,95017.00
2023-04-03T00:28:02.517Z,95014.00
2023-04-03T00:29:02.590Z,95016.00
2023-04-03T00:30:02.641Z,95017.00
2023-04-03T00:31:02.736Z,95019.00
2023-04-03T00:32:02.777Z,95019.00
2023-04-03T00:33:02.878Z,95021.00
2023-04-03T00:34:02.943Z,95021.00
2023-04-03T00:35:02.948Z,95023.00
2023-04-03T00:36:03.076Z,95023.00
2023-04-03T00:37:03.127Z,95023.00
2023-04-03T00:38:03.123Z,95023.00
2023-04-03T00:39:03.206Z,95027.00
2023-04-03T00:40:03.215Z,95025.00
2023-04-03T00:41:03.305Z,95023.00
2023-04-03T00:42:03.396Z,95025.00
2023-04-03T00:43:03.430Z,95027.00
2023-04-03T00:44:03.506Z,95027.00
2023-04-03T00:45:03.553Z,95029.00
2023-04-03T00:46:03.627Z,95029.00
2023-04-03T00:47:03.670Z,95031.00
2023-04-03T00:48:03.785Z,95033.00
2023-04-03T00:49:03.862Z,95033.00
2023-04-03T00:50:03.871Z,95035.00
2023-04-03T00:51:03.902Z,95033.00
2023-04-03T00:52:03.988Z,95035.00
2023-04-03T00:53:04.085Z,95037.00
2023-04-03T00:54:04.098Z,95037.00
2023-04-03T00:55:04.163Z,95037.00
2023-04-03T00:56:04.212Z,95037.00
2023-04-03T00:57:04.265Z,95037.00
2023-04-03T00:58:04.334Z,95037.00
2023-04-03T00:59:04.397Z,95041.00
2023-04-03T01:00:04.442Z,95039.00
2023-04-03T01:01:04.490Z,95041.00
2023-04-03T01:02:04.709Z,95039.00
2023-04-03T01:03:04.640Z,95039.00
2023-04-03T01:04:04.746Z,95039.00
2023-04-03T01:05:04.747Z,95041.00
2023-04-03T01:06:04.791Z,95039.00
2023-04-03T01:07:04.857Z,95039.00
2023-04-03T01:08:04.919Z,95041.00
2023-04-03T01:09:05.024Z,95043.00
2023-04-03T01:10:05.069Z,95043.00
2023-04-03T01:11:05.082Z,95041.00
2023-04-03T01:12:05.162Z,95043.00
2023-04-03T01:13:05.204Z,95045.00
2023-04-03T01:14:05.267Z,95047.00
2023-04-03T01:15:05.375Z,95047.00
2023-04-03T01:16:05.417Z,95051.00
2023-04-03T01:17:05.440Z,95047.00
2023-04-03T01:18:05.569Z,95051.00
2023-04-03T01:19:05.535Z,95053.00
2023-04-03T01:20:05.623Z,95053.00
2023-04-03T01:21:05.709Z,95049.00
2023-04-03T01:22:05.748Z,95051.00
2023-04-03T01:23:05.840Z,95049.00
2023-04-03T01:24:05.831Z,95049.00
2023-04-03T01:25:05.894Z,95051.00
2023-04-03T01:26:05.910Z,95051.00
2023-04-03T01:27:05.979Z,95049.00
2023-04-03T01:28:06.012Z,95051.00
2023-04-03T01:29:06.088Z,95047.00
2023-04-03T01:30:06.079Z,95051.00
2023-04-03T01:31:06.172Z,95053.00
2023-04-03T01:32:06.172Z,95055.00
2023-04-03T01:33:06.256Z,95055.00
2023-04-03T01:34:06.266Z,95055.00
2023-04-03T01:35:06.335Z,95055.00
2023-04-03T01:36:06.367Z,95055.00
2023-04-03T01:37:06.416Z,95059.00
2023-04-03T01:38:06.489Z,95061.00
2023-04-03T01:39:06.575Z,95063.00
2023-04-03T01:40:06.622Z,95061.00
2023-04-03T01:41:06.713Z,95063.00
2023-04-03T01:42:06.756Z,95061.00
2023-04-03T01:43:06.770Z,95064.00
2023-04-03T01:44:06.829Z,95064.00
2023-04-03T01:45:06.903Z,95063.00
2023-04-03T01:46:07.020Z,95064.00
2023-04-03T01:47:06.978Z,95063.00
2023-04-03T01:48:06.975Z,95061.00
2023-04-03T01:49:06.998Z,95063.00
2023-04-03T01:50:07.033Z,95061.00
2023-04-03T01:51:07.058Z,95066.00
2023-04-03T01:52:07.109Z,95063.00
2023-04-03T01:53:07.124Z,95063.00
2023-04-03T01:54:07.171Z,95064.00
2023-04-03T01:55:07.246Z,95061.00
2023-04-03T01:56:07.298Z,95063.00
2023-04-03T01:57:07.350Z,95063.00
2023-04-03T01:58:07.386Z,95064.00
2023-04-03T01:59:07.425Z,95064.00
2023-04-03T02:00:07.470Z,95063.00
2023-04-03T02:01:07.486Z,95064.00
2023-04-03T02:02:07.492Z,95063.00
2023-04-03T02:03:07.623Z,95064.00
2023-04-03T02:04:07.560Z,95068.00
2023-04-03T02:05:07.603Z,95063.00
2023-04-03T02:06:07.575Z,95063.00
2023-04-03T02:07:07.617Z,95061.00
2023-04-03T02:08:07.630Z,95059.00
2023-04-03T02:09:07.718Z,95059.00
2023-04-03T02:10:07.748Z,95059.00
2023-04-03T02:11:07.761Z,95059.00
2023-04-03T02:12:07.815Z,95059.00
2023-04-03T02:13:07.815Z,95057.00
2023-04-03T02:14:07.875Z,95059.00
2023-04-03T02:15:07.882Z,95059.00
2023-04-03T02:16:07.968Z,95059.00
2023-04-03T02:17:07.957Z,95057.00
2023-04-03T02:18:08.078Z,95059.00
2023-04-03T02:19:08.111Z,95057.00
2023-04-03T02:20:08.093Z,95059.00
2023-04-03T02:21:08.124Z,95059.00
2023-04-03T02:22:08.123Z,95059.00
2023-04-03T02:23:08.134Z,95061.00
2023-04-03T02:24:08.203Z,95061.00
2023-04-03T02:25:08.241Z,95063.00
2023-04-03T02:26:08.294Z,95064.00
2023-04-03T02:27:08.304Z,95064.00
2023-04-03T02:28:08.364Z,95063.00
2023-04-03T02:29:08.441Z,95064.00
2023-04-03T02:30:08.388Z,95063.00
2023-04-03T02:31:08.511Z,95057.00
2023-04-03T02:32:08.489Z,95064.00
2023-04-03T02:33:08.562Z,95064.00
2023-04-03T02:34:08.572Z,95063.00
2023-04-03T02:35:08.644Z,95057.00
2023-04-03T02:36:08.730Z,95061.00
2023-04-03T02:37:08.726Z,95059.00
2023-04-03T02:38:08.745Z,95059.00
2023-04-03T02:39:08.818Z,95061.00
2023-04-03T02:40:08.824Z,95063.00
2023-04-03T02:41:08.876Z,95064.00
2023-04-03T02:42:08.934Z,95064.00
2023-04-03T02:43:08.936Z,95063.00
2023-04-03T02:44:09.013Z,95066.00
2023-04-03T02:45:09.052Z,95066.00
2023-04-03T02:46:09.174Z,95066.00
2023-04-03T02:47:09.162Z,95066.00
2023-04-03T02:48:09.231Z,95068.00
2023-04-03T02:49:09.237Z,95066.00
2023-04-03T02:50:09.266Z,95066.00
2023-04-03T02:51:09.330Z,95068.00
2023-04-03T02:52:09.345Z,95066.00
2023-04-03T02:53:09.433Z,95068.00
2023-04-03T02:54:09.446Z,95066.00
2023-04-03T02:55:09.542Z,95068.00
2023-04-03T02:56:09.573Z,95068.00
2023-04-03T02:57:09.606Z,95068.00
2023-04-03T02:58:09.903Z,95066.00
2023-04-03T02:59:09.647Z,95064.00
2023-04-03T03:00:09.672Z,95064.00
2023-04-03T03:01:09.772Z,95066.00
2023-04-03T03:02:09.714Z,95066.00
2023-04-03T03:03:09.737Z,95066.00
2023-04-03T03:04:09.746Z,95066.00
2023-04-03T03:05:09.860Z,95068.00
2023-04-03T03:06:09.821Z,95068.00
2023-04-03T03:07:09.844Z,95074.00
2023-04-03T03:08:09.851Z,95072.00
2023-04-03T03:09:09.843Z,95072.00
2023-04-03T03:10:09.922Z,95074.00
2023-04-03T03:11:09.958Z,95072.00
2023-04-03T03:12:09.967Z,95072.00
2023-04-03T03:13:09.980Z,95070.00
2023-04-03T03:14:10.021Z,95070.00
2023-04-03T03:15:10.038Z,95070.00
2023-04-03T03:16:10.030Z,95068.00
2023-04-03T03:17:10.075Z,95068.00
2023-04-03T03:18:10.064Z,95070.00
2023-04-03T03:19:10.064Z,95070.00
2023-04-03T03:20:10.055Z,95070.00
2023-04-03T03:21:10.103Z,95070.00
2023-04-03T03:22:10.086Z,95072.00
2023-04-03T03:23:10.073Z,95074.00
2023-04-03T03:24:10.090Z,95072.00
2023-04-03T03:25:10.101Z,95074.00
2023-04-03T03:26:10.176Z,95074.00
2023-04-03T03:27:10.191Z,95074.00
2023-04-03T03:28:10.190Z,95074.00
2023-04-03T03:29:10.197Z,95072.00
2023-04-03T03:30:10.232Z,95072.00
2023-04-03T03:31:10.304Z,95070.00
2023-04-03T03:32:10.259Z,95070.00
2023-04-03T03:33:10.281Z,95070.00
2023-04-03T03:34:10.319Z,95072.00
2023-04-03T03:35:10.333Z,95070.00
2023-04-03T03:36:10.413Z,95068.00
2023-04-03T03:37:10.347Z,95068.00
2023-04-03T03:38:10.367Z,95070.00
2023-04-03T03:39:10.352Z,95070.00
2023-04-03T03:40:10.350Z,95070.00
2023-04-03T03:41:10.339Z,95070.00
2023-04-03T03:42:10.312Z,95070.00
2023-04-03T03:43:10.351Z,95072.00
2023-04-03T03:44:10.371Z,95070.00
2023-04-03T03:45:10.329Z,95074.00
2023-04-03T03:46:10.347Z,95072.00
2023-04-03T03:47:10.325Z,95078.00
2023-04-03T03:48:10.327Z,95078.00
2023-04-03T03:49:10.330Z,95076.00
2023-04-03T03:50:10.347Z,95078.00
2023-04-03T03:51:10.332Z,95076.00
2023-04-03T03:52:10.356Z,95076.00
2023-04-03T03:53:10.389Z,95080.00
2023-04-03T03:54:10.386Z,95078.00
2023-04-03T03:55:10.443Z,95080.00
2023-04-03T03:56:10.404Z,95078.00
2023-04-03T03:57:10.458Z,95080.00
2023-04-03T03:58:10.472Z,95078.00
2023-04-03T03:59:10.466Z,95078.00
2023-04-03T04:00:10.435Z,95078.00
2023-04-03T04:01:10.485Z,95080.00
2023-04-03T04:02:10.506Z,95082.00
2023-04-03T04:03:10.505Z,95078.00
2023-04-03T04:04:10.481Z,95080.00
2023-04-03T04:05:10.424Z,95080.00
2023-04-03T04:06:10.464Z,95080.00
2023-04-03T04:07:10.447Z,95084.00
2023-04-03T04:08:10.453Z,95080.00
2023-04-03T04:09:10.466Z,95080.00
2023-04-03T04:10:10.439Z,95082.00
2023-04-03T04:11:10.438Z,95080.00
2023-04-03T04:12:10.470Z,95078.00
2023-04-03T04:13:10.445Z,95080.00
2023-04-03T04:14:10.457Z,95082.00
2023-04-03T04:15:10.428Z,95080.00
2023-04-03T04:16:10.470Z,95080.00
2023-04-03T04:17:10.453Z,95080.00
2023-04-03T04:18:10.483Z,95082.00
2023-04-03T04:19:10.459Z,95076.00
2023-04-03T04:20:10.467Z,95080.00
2023-04-03T04:21:10.445Z,95078.00
2023-04-03T04:22:10.448Z,95080.00
2023-04-03T04:23:10.485Z,95078.00
2023-04-03T04:24:10.477Z,95080.00
2023-04-03T04:25:10.483Z,95080.00
2023-04-03T04:26:10.476Z,95078.00
2023-04-03T04:27:10.481Z,95080.00
2023-04-03T04:28:10.508Z,95076.00
2023-04-03T04:29:10.511Z,95076.00
2023-04-03T04:30:10.505Z,95080.00
2023-04-03T04:31:10.569Z,95082.00
2023-04-03T04:32:10.522Z,95082.00
2023-04-03T04:33:10.620Z,95082.00
2023-04-03T04:34:10.531Z,95082.00
2023-04-03T04:35:10.574Z,95084.00
2023-04-03T04:36:10.710Z,95082.00
2023-04-03T04:37:10.520Z,95084.00
2023-04-03T04:38:10.511Z,95086.00
2023-04-03T04:39:10.533Z,95086.00
2023-04-03T04:40:10.530Z,95086.00
2023-04-03T04:41:10.536Z,95086.00
2023-04-03T04:42:10.518Z,95090.00
2023-04-03T04:43:10.525Z,95086.00
2023-04-03T04:44:10.514Z,95090.00
2023-04-03T04:45:10.575Z,95092.00
2023-04-03T04:46:10.596Z,95094.00
2023-04-03T04:47:10.536Z,95092.00
2023-04-03T04:48:10.556Z,95094.00
2023-04-03T04:49:10.548Z,95088.00
2023-04-03T04:50:10.564Z,95094.00
2023-04-03T04:51:10.548Z,95090.00
2023-04-03T04:52:10.562Z,95092.00
2023-04-03T04:53:10.549Z,95096.00
2023-04-03T04:54:10.515Z,95090.00
2023-04-03T04:55:10.577Z,95092.00
2023-04-03T04:56:10.527Z,95092.00
2023-04-03T04:57:10.574Z,95094.00
2023-04-03T04:58:10.575Z,95094.00
2023-04-03T04:59:10.572Z,95094.00
2023-04-03T05:00:10.587Z,95092.00
2023-04-03T05:01:10.566Z,95096.00
2023-04-03T05:02:10.578Z,95092.00
2023-04-03T05:03:10.611Z,95092.00
2023-04-03T05:04:10.607Z,95094.00
2023-04-03T05:05:10.660Z,95096.00
2023-04-03T05:06:10.610Z,95094.00
2023-04-03T05:07:10.605Z,95096.00
2023-04-03T05:08:10.624Z,95098.00
2023-04-03T05:09:10.614Z,95100.00
2023-04-03T05:10:10.636Z,95096.00
2023-04-03T05:11:10.605Z,95094.00
2023-04-03T05:12:10.628Z,95098.00
2023-04-03T05:13:10.636Z,95096.00
2023-04-03T05:14:10.636Z,95098.00
2023-04-03T05:15:10.655Z,95098.00
2023-04-03T05:16:10.685Z,95098.00
2023-04-03T05:17:10.742Z,95098.00
2023-04-03T05:18:10.691Z,95096.00
2023-04-03T05:19:10.658Z,95100.00
2023-04-03T05:20:10.710Z,95102.00
2023-04-03T05:21:10.711Z,95100.00
2023-04-03T05:22:10.718Z,95102.00
2023-04-03T05:23:10.706Z,95102.00
2023-04-03T05:24:10.720Z,95106.00
2023-04-03T05:25:10.737Z,95106.00
2023-04-03T05:26:10.713Z,95108.00
2023-04-03T05:27:10.730Z,95104.00
2023-04-03T05:28:10.733Z,95106.00
2023-04-03T05:29:10.766Z,95106.00
2023-04-03T05:30:10.773Z,95104.00
2023-04-03T05:31:10.764Z,95111.00
2023-04-03T05:32:10.844Z,95110.00
2023-04-03T05:33:10.845Z,95110.00
2023-04-03T05:34:10.801Z,95108.00
2023-04-03T05:35:10.804Z,95108.00
2023-04-03T05:36:10.958Z,95108.00
2023-04-03T05:37:10.816Z,95115.00
2023-04-03T05:38:10.882Z,95113.00
2023-04-03T05:39:10.868Z,95115.00
2023-04-03T05:40:10.864Z,95117.00
2023-04-03T05:41:10.868Z,95115.00
2023-04-03T05:42:10.931Z,95117.00
2023-04-03T05:43:10.890Z,95115.00
2023-04-03T05:44:10.905Z,95117.00
2023-04-03T05:45:10.929Z,95119.00
2023-04-03T05:46:10.921Z,95119.00
2023-04-03T05:47:10.919Z,95125.00
2023-04-03T05:48:10.941Z,95123.00
2023-04-03T05:49:10.955Z,95127.00
2023-04-03T05:50:10.976Z,95125.00
2023-04-03T05:51:10.988Z,95125.00
2023-04-03T05:52:10.975Z,95125.00
2023-04-03T05:53:10.997Z,95129.00
2023-04-03T05:54:11.035Z,95133.00
2023-04-03T05:55:11.000Z,95133.00
2023-04-03T05:56:11.048Z,95135.00
2023-04-03T05:57:11.047Z,95133.00
2023-04-03T05:58:11.734Z,95135.00
2023-04-03T05:59:11.045Z,95133.00
2023-04-03T06:00:11.087Z,95137.00
2023-04-03T06:01:11.043Z,95135.00
2023-04-03T06:02:11.021Z,95137.00
2023-04-03T06:03:11.127Z,95137.00
2023-04-03T06:04:11.167Z,95135.00
2023-04-03T06:05:11.136Z,95137.00
2023-04-03T06:06:11.059Z,95133.00
2023-04-03T06:07:11.069Z,95135.00
2023-04-03T06:08:11.070Z,95135.00
2023-04-03T06:09:11.036Z,95137.00
2023-04-03T06:10:11.048Z,95137.00
2023-04-03T06:11:11.039Z,95137.00
2023-04-03T06:12:11.067Z,95137.00
2023-04-03T06:13:11.020Z,95137.00
2023-04-03T06:14:11.069Z,95139.00
2023-04-03T06:15:11.020Z,95137.00
2023-04-03T06:16:11.017Z,95137.00
2023-04-03T06:17:11.062Z,95141.00
2023-04-03T06:18:11.029Z,95139.00
2023-04-03T06:19:11.042Z,95141.00
2023-04-03T06:20:11.038Z,95137.00
2023-04-03T06:21:11.018Z,95139.00
2023-04-03T06:22:11.018Z,95137.00
2023-04-03T06:23:11.013Z,95149.00
2023-04-03T06:24:11.028Z,95141.00
2023-04-03T06:25:11.104Z,95141.00
2023-04-03T06:26:11.070Z,95139.00
2023-04-03T06:27:11.049Z,95139.00
2023-04-03T06:28:11.065Z,95141.00
2023-04-03T06:29:11.043Z,95139.00
2023-04-03T06:30:10.998Z,95135.00
2023-04-03T06:31:11.028Z,95139.00
2023-04-03T06:32:11.034Z,95141.00
2023-04-03T06:33:11.063Z,95141.00
2023-04-03T06:34:11.026Z,95141.00
2023-04-03T06:35:11.024Z,95149.00
2023-04-03T06:36:11.029Z,95141.00
2023-04-03T06:37:11.039Z,95141.00
2023-04-03T06:38:11.025Z,95141.00
2023-04-03T06:39:11.024Z,95139.00
2023-04-03T06:40:11.036Z,95139.00
2023-04-03T06:41:10.995Z,95137.00
2023-04-03T06:42:11.021Z,95137.00
2023-04-03T06:43:10.989Z,95139.00
2023-04-03T06:44:10.994Z,95141.00
2023-04-03T06:45:11.036Z,95139.00
2023-04-03T06:46:11.058Z,95141.00
2023-04-03T06:47:11.017Z,95149.00
2023-04-03T06:48:11.064Z,95139.00
2023-04-03T06:49:11.015Z,95149.00
2023-04-03T06:50:10.987Z,95149.00
2023-04-03T06:51:10.973Z,95151.00
2023-04-03T06:52:11.037Z,95151.00
2023-04-03T06:53:10.997Z,95153.00
2023-04-03T06:54:10.988Z,95153.00
2023-04-03T06:55:10.981Z,95153.00
2023-04-03T06:56:10.978Z,95153.00
2023-04-03T06:57:11.019Z,95155.00
2023-04-03T06:58:10.991Z,95155.00
2023-04-03T06:59:11.008Z,95153.00
2023-04-03T07:00:10.990Z,95153.00
2023-04-03T07:01:11.008Z,95153.00
2023-04-03T07:02:11.037Z,95153.00
2023-04-03T07:03:10.988Z,95155.00
2023-04-03T07:04:11.015Z,95157.00
2023-04-03T07:05:10.996Z,95157.00
2023-04-03T07:06:10.951Z,95157.00
2023-04-03T07:07:11.245Z,95157.00
2023-04-03T07:08:10.951Z,95159.00
2023-04-03T07:09:10.959Z,95161.00
2023-04-03T07:10:10.965Z,95161.00
2023-04-03T07:11:10.976Z,95163.00
2023-04-03T07:12:10.985Z,95164.00
2023-04-03T07:13:10.945Z,95163.00
2023-04-03T07:14:11.003Z,95163.00
2023-04-03T07:15:10.969Z,95163.00
2023-04-03T07:16:11.017Z,95164.00
2023-04-03T07:17:10.980Z,95164.00
2023-04-03T07:18:11.059Z,95168.00
2023-04-03T07:19:10.990Z,95168.00
2023-04-03T07:20:10.956Z,95168.00
2023-04-03T07:21:11.303Z,95168.00
2023-04-03T07:22:10.958Z,95168.00
2023-04-03T07:23:10.969Z,95170.00
2023-04-03T07:24:13.098Z,95172.00
2023-04-03T07:25:11.948Z,95172.00
2023-04-03T07:26:10.950Z,95174.00
2023-04-03T07:27:10.942Z,95174.00
2023-04-03T07:28:10.948Z,95174.00
2023-04-03T07:29:10.899Z,95172.00
2023-04-03T07:30:10.938Z,95170.00
2023-04-03T07:31:10.935Z,95172.00
2023-04-03T07:32:10.910Z,95172.00
2023-04-03T07:33:10.959Z,95174.00
2023-04-03T07:34:10.887Z,95176.00
2023-04-03T07:35:10.905Z,95176.00
2023-04-03T07:36:10.962Z,95174.00
2023-04-03T07:37:10.909Z,95178.00
2023-04-03T07:38:10.862Z,95178.00
2023-04-03T07:39:10.864Z,95178.00
2023-04-03T07:40:10.843Z,95178.00
2023-04-03T07:41:10.847Z,95182.00
2023-04-03T07:42:10.847Z,95178.00
2023-04-03T07:43:10.817Z,95182.00
2023-04-03T07:44:10.863Z,95182.00
2023-04-03T07:45:10.801Z,95182.00
2023-04-03T07:46:10.809Z,95180.00
2023-04-03T07:47:10.881Z,95180.00
2023-04-03T07:48:10.787Z,95180.00
2023-04-03T07:49:10.798Z,95178.00
2023-04-03T07:50:10.760Z,95178.00
2023-04-03T07:51:10.808Z,95176.00
2023-04-03T07:52:10.775Z,95180.00
2023-04-03T07:53:10.758Z,95182.00
2023-04-03T07:54:10.769Z,95182.00
2023-04-03T07:55:10.869Z,95180.00
2023-04-03T07:56:10.741Z,95184.00
2023-04-03T07:57:10.780Z,95182.00
2023-04-03T07:58:10.738Z,95182.00
2023-04-03T07:59:10.709Z,95182.00
2023-04-03T08:00:10.730Z,95184.00
2023-04-03T08:01:10.698Z,95186.00
2023-04-03T08:02:10.723Z,95182.00
2023-04-03T08:03:12.543Z,95186.00
2023-04-03T08:04:10.768Z,95182.00
2023-04-03T08:05:10.656Z,95184.00
2023-04-03T08:06:15.487Z,95184.00
2023-04-03T08:07:11.695Z,95184.00
2023-04-03T08:08:10.654Z,95186.00
2023-04-03T08:09:10.650Z,95182.00
2023-04-03T08:10:10.669Z,95186.00
2023-04-03T08:11:10.675Z,95188.00
2023-04-03T08:12:10.636Z,95186.00
2023-04-03T08:13:10.620Z,95184.00
2023-04-03T08:14:10.603Z,95184.00
2023-04-03T08:15:10.626Z,95186.00
2023-04-03T08:16:10.647Z,95184.00
2023-04-03T08:17:10.608Z,95184.00
2023-04-03T08:18:10.581Z,95188.00
2023-04-03T08:19:22.320Z,95188.00
2023-04-03T08:20:11.595Z,95186.00
2023-04-03T08:21:10.549Z,95184.00
2023-04-03T08:22:10.610Z,95186.00
2023-04-03T08:23:10.614Z,95184.00
2023-04-03T08:24:10.560Z,95182.00
2023-04-03T08:25:10.569Z,95184.00
2023-04-03T08:26:10.572Z,95186.00
2023-04-03T08:27:10.530Z,95184.00
2023-04-03T08:28:10.545Z,95186.00
2023-04-03T08:29:10.639Z,95184.00
2023-04-03T08:30:10.658Z,95186.00
2023-04-03T08:31:10.716Z,95184.00
2023-04-03T08:32:10.783Z,95188.00
2023-04-03T08:33:10.841Z,95190.00
2023-04-03T08:34:10.894Z,95188.00
2023-04-03T08:35:10.914Z,95184.00
2023-04-03T08:36:11.025Z,95182.00
2023-04-03T08:37:11.013Z,95186.00
2023-04-03T08:38:11.207Z,95184.00
2023-04-03T08:39:11.130Z,95180.00
2023-04-03T08:40:11.168Z,95178.00
2023-04-03T08:41:11.185Z,95182.00
2023-04-03T08:42:11.298Z,95178.00
2023-04-03T08:43:11.415Z,95180.00
2023-04-03T08:44:11.420Z,95180.00
2023-04-03T08:45:11.468Z,95178.00
2023-04-03T08:46:11.587Z,95178.00
2023-04-03T08:47:11.551Z,95182.00
2023-04-03T08:48:11.654Z,95178.00
2023-04-03T08:49:11.745Z,95178.00
2023-04-03T08:50:11.748Z,95180.00
2023-04-03T08:51:12.685Z,95180.00
2023-04-03T08:52:11.829Z,95182.00
2023-04-03T08:53:11.911Z,95182.00
2023-04-03T08:54:11.945Z,95180.00
2023-04-03T08:55:12.009Z,95180.00
2023-04-03T08:56:12.075Z,95180.00
2023-04-03T08:57:12.150Z,95180.00
2023-04-03T08:58:12.142Z,95178.00
2023-04-03T08:59:12.325Z,95176.00
2023-04-03T09:00:12.242Z,95174.00
2023-04-03T09:01:12.351Z,95174.00
2023-04-03T09:02:12.371Z,95174.00
2023-04-03T09:03:12.482Z,95174.00
2023-04-03T09:04:13.229Z,95170.00
2023-04-03T09:05:12.568Z,95170.00
2023-04-03T09:06:12.642Z,95174.00
2023-04-03T09:07:12.677Z,95174.00
2023-04-03T09:08:12.723Z,95174.00
2023-04-03T09:09:12.799Z,95172.00
2023-04-03T09:10:12.837Z,95176.00
2023-04-03T09:11:12.907Z,95176.00
2023-04-03T09:12:13.022Z,95180.00
2023-04-03T09:13:13.057Z,95178.00
2023-04-03T09:14:13.101Z,95176.00
2023-04-03T09:15:13.236Z,95178.00
2023-04-03T09:16:13.248Z,95176.00
2023-04-03T09:17:13.339Z,95174.00
2023-04-03T09:18:13.328Z,95176.00
2023-04-03T09:19:13.415Z,95178.00
2023-04-03T09:20:13.473Z,95180.00
2023-04-03T09:21:13.514Z,95180.00
2023-04-03T09:22:13.594Z,95176.00
2023-04-03T09:23:13.620Z,95180.00
2023-04-03T09:24:13.644Z,95180.00
2023-04-03T09:25:13.720Z,95180.00
2023-04-03T09:26:13.802Z,95182.00
2023-04-03T09:27:13.887Z,95178.00
2023-04-03T09:28:13.883Z,95180.00
2023-04-03T09:29:13.933Z,95178.00
2023-04-03T09:30:13.997Z,95178.00
2023-04-03T09:31:14.157Z,95178.00
2023-04-03T09:32:14.104Z,95178.00
2023-04-03T09:33:14.149Z,95176.00
2023-04-03T09:34:14.182Z,95176.00
2023-04-03T09:35:20.665Z,95174.00
2023-04-03T09:36:15.242Z,95172.00
2023-04-03T09:37:14.207Z,95174.00
2023-04-03T09:38:14.327Z,95174.00
2023-04-03T09:39:14.194Z,95170.00
2023-04-03T09:40:14.229Z,95172.00
2023-04-03T09:41:14.201Z,95168.00
2023-04-03T09:42:14.183Z,95166.00
2023-04-03T09:43:14.177Z,95170.00
2023-04-03T09:44:14.182Z,95168.00
2023-04-03T09:45:14.258Z,95166.00
2023-04-03T09:46:14.355Z,95166.00
2023-04-03T09:47:14.420Z,95166.00
2023-04-03T09:49:14.480Z,95164.00
2023-04-03T09:50:14.549Z,95163.00
2023-04-03T09:51:14.694Z,95164.00
2023-04-03T09:52:14.679Z,95164.00
2023-04-03T09:53:14.742Z,95161.00
2023-04-03T09:54:14.805Z,95166.00
2023-04-03T09:55:14.868Z,95163.00
2023-04-03T09:56:14.912Z,95164.00
2023-04-03T09:57:15.024Z,95164.00
2023-04-03T09:58:15.045Z,95163.00
2023-04-03T09:59:15.090Z,95163.00
2023-04-03T10:00:15.185Z,95161.00
2023-04-03T10:01:15.232Z,95157.00
2023-04-03T10:02:15.268Z,95157.00
2023-04-03T10:03:15.429Z,95157.00
2023-04-03T10:04:15.418Z,95155.00
2023-04-03T10:05:15.515Z,95157.00
2023-04-03T10:06:15.505Z,95155.00
2023-04-03T10:07:15.574Z,95151.00
2023-04-03T10:08:15.617Z,95157.00
2023-04-03T10:09:15.674Z,95151.00
2023-04-03T10:10:15.871Z,95151.00
2023-04-03T10:11:15.845Z,95149.00
2023-04-03T10:12:15.883Z,95151.00
2023-04-03T10:13:20.978Z,95153.00
2023-04-03T10:14:16.922Z,95151.00
2023-04-03T10:15:15.935Z,95159.00
2023-04-03T10:16:15.938Z,95157.00
2023-04-03T10:17:15.887Z,95155.00
2023-04-03T10:18:24.420Z,95157.00
2023-04-03T10:19:16.970Z,95157.00
2023-04-03T10:20:15.949Z,95161.00
2023-04-03T10:21:26.747Z,95161.00
2023-04-03T10:22:16.868Z,95155.00
2023-04-03T10:23:15.865Z,95161.00
2023-04-03T10:24:15.896Z,95157.00
2023-04-03T10:25:15.894Z,95163.00
2023-04-03T10:26:15.846Z,95161.00
2023-04-03T10:27:15.823Z,95163.00
2023-04-03T10:28:15.863Z,95159.00
2023-04-03T10:29:15.810Z,95159.00
2023-04-03T10:30:15.840Z,95163.00
2023-04-03T10:31:15.865Z,95157.00
2023-04-03T10:32:15.779Z,95161.00
2023-04-03T10:33:15.844Z,95157.00
2023-04-03T10:34:15.899Z,95155.00
2023-04-03T10:35:16.052Z,95159.00
2023-04-03T10:36:15.999Z,95161.00
2023-04-03T10:37:16.051Z,95155.00
2023-04-03T10:38:16.081Z,95157.00
2023-04-03T10:39:16.150Z,95161.00
2023-04-03T10:40:16.268Z,95159.00
2023-04-03T10:41:17.530Z,95157.00
2023-04-03T10:42:17.532Z,95159.00
2023-04-03T10:43:16.367Z,95159.00
2023-04-03T10:44:16.398Z,95155.00
2023-04-03T10:45:16.421Z,95159.00
2023-04-03T10:46:16.527Z,95159.00
2023-04-03T10:47:16.504Z,95161.00
2023-04-03T10:48:16.609Z,95157.00
2023-04-03T10:49:16.616Z,95163.00
2023-04-03T10:50:16.657Z,95155.00
2023-04-03T10:51:16.784Z,95155.00
2023-04-03T10:52:16.753Z,95157.00
2023-04-03T10:53:16.775Z,95153.00
2023-04-03T10:54:16.840Z,95157.00
2023-04-03T10:55:16.863Z,95155.00
2023-04-03T10:56:17.031Z,95155.00
2023-04-03T10:57:16.974Z,95157.00
2023-04-03T10:58:17.001Z,95155.00
2023-04-03T10:59:17.034Z,95155.00
2023-04-03T11:00:17.105Z,95155.00
2023-04-03T11:01:17.131Z,95149.00
2023-04-03T11:02:17.182Z,95151.00
2023-04-03T11:03:17.281Z,95149.00
2023-04-03T11:04:17.283Z,95139.00
2023-04-03T11:05:17.287Z,95141.00
2023-04-03T11:06:17.310Z,95151.00
2023-04-03T11:07:17.440Z,95151.00
2023-04-03T11:08:17.426Z,95141.00
2023-04-03T11:09:17.426Z,95141.00
2023-04-03T11:10:17.530Z,95141.00
2023-04-03T11:11:17.521Z,95139.00
2023-04-03T11:12:17.551Z,95141.00
2023-04-03T11:13:17.650Z,95151.00
2023-04-03T11:14:17.647Z,95141.00
2023-04-03T11:15:17.697Z,95137.00
2023-04-03T11:16:17.737Z,95135.00
2023-04-03T11:17:17.747Z,95139.00
2023-04-03T11:18:17.789Z,95137.00
2023-04-03T11:19:17.826Z,95139.00
2023-04-03T11:20:17.848Z,95137.00
2023-04-03T11:21:17.900Z,95135.00
2023-04-03T11:22:17.960Z,95133.00
2023-04-03T11:23:18.047Z,95137.00
2023-04-03T11:24:18.029Z,95133.00
2023-04-03T11:25:18.034Z,95137.00
2023-04-03T11:26:18.086Z,95133.00
2023-04-03T11:27:18.153Z,95135.00
2023-04-03T11:28:18.163Z,95137.00
2023-04-03T11:29:34.199Z,95137.00
2023-04-03T11:30:19.236Z,95133.00
2023-04-03T11:31:18.218Z,95137.00
2023-04-03T11:32:18.205Z,95137.00
2023-04-03T11:33:18.175Z,95137.00
2023-04-03T11:34:18.194Z,95133.00
2023-04-03T11:35:18.204Z,95133.00
2023-04-03T11:36:25.882Z,95133.00
2023-04-03T11:37:19.165Z,95133.00
2023-04-03T11:38:18.123Z,95139.00
2023-04-03T11:39:18.236Z,95135.00
2023-04-03T11:40:18.145Z,95133.00
2023-04-03T11:41:18.144Z,95137.00
2023-04-03T11:42:18.184Z,95133.00
2023-04-03T11:43:18.094Z,95137.00
2023-04-03T11:44:18.130Z,95131.00
2023-04-03T11:45:18.105Z,95135.00